sensor_id;sensor_type;location;lat;lon;timestamp;temperature;humidity
4840;DHT22;2434;48.486;7.964;2023-04-24T00:00:59;12.80;65.40
4840;DHT22;2434;48.486;7.964;2023-04-24T00:03:28;12.80;65.00
4840;DHT22;2434;48.486;7.964;2023-04-24T00:05:57;12.90;65.00
4840;DHT22;2434;48.486;7.964;2023-04-24T00:08:26;12.90;64.50
4840;DHT22;2434;48.486;7.964;2023-04-24T00:10:54;12.90;64.60
4840;DHT22;2434;48.486;7.964;2023-04-24T00:13:22;12.80;64.40
4840;DHT22;2434;48.486;7.964;2023-04-24T00:15:52;12.90;64.80
4840;DHT22;2434;48.486;7.964;2023-04-24T00:18:20;12.90;63.90
4840;DHT22;2434;48.486;7.964;2023-04-24T00:20:49;13.00;63.70
4840;DHT22;2434;48.486;7.964;2023-04-24T00:23:17;13.00;64.00
4840;DHT22;2434;48.486;7.964;2023-04-24T00:25:45;13.00;64.10
4840;DHT22;2434;48.486;7.964;2023-04-24T00:28:13;13.00;64.20
4840;DHT22;2434;48.486;7.964;2023-04-24T00:30:42;13.00;65.00
4840;DHT22;2434;48.486;7.964;2023-04-24T00:33:11;13.00;66.20
4840;DHT22;2434;48.486;7.964;2023-04-24T00:35:40;12.90;66.90
4840;DHT22;2434;48.486;7.964;2023-04-24T00:38:08;12.90;67.60
4840;DHT22;2434;48.486;7.964;2023-04-24T00:40:36;12.90;68.80
4840;DHT22;2434;48.486;7.964;2023-04-24T00:43:05;12.80;69.50
4840;DHT22;2434;48.486;7.964;2023-04-24T00:45:36;12.70;70.60
4840;DHT22;2434;48.486;7.964;2023-04-24T00:48:04;12.70;71.20
4840;DHT22;2434;48.486;7.964;2023-04-24T00:50:35;12.70;71.30
4840;DHT22;2434;48.486;7.964;2023-04-24T00:53:04;12.60;71.10
4840;DHT22;2434;48.486;7.964;2023-04-24T00:55:33;12.60;71.50
4840;DHT22;2434;48.486;7.964;2023-04-24T00:58:02;12.60;71.70
4840;DHT22;2434;48.486;7.964;2023-04-24T01:00:30;12.50;71.50
4840;DHT22;2434;48.486;7.964;2023-04-24T01:03:01;12.50;71.60
4840;DHT22;2434;48.486;7.964;2023-04-24T01:05:35;12.50;71.70
4840;DHT22;2434;48.486;7.964;2023-04-24T01:08:03;12.50;71.90
4840;DHT22;2434;48.486;7.964;2023-04-24T01:10:33;12.50;72.50
4840;DHT22;2434;48.486;7.964;2023-04-24T01:13:02;12.50;73.70
4840;DHT22;2434;48.486;7.964;2023-04-24T01:15:31;12.50;73.50
4840;DHT22;2434;48.486;7.964;2023-04-24T01:17:59;12.50;74.10
4840;DHT22;2434;48.486;7.964;2023-04-24T01:20:30;12.50;74.60
4840;DHT22;2434;48.486;7.964;2023-04-24T01:23:01;12.40;75.00
4840;DHT22;2434;48.486;7.964;2023-04-24T01:25:29;12.40;74.80
4840;DHT22;2434;48.486;7.964;2023-04-24T01:27:59;12.40;75.40
4840;DHT22;2434;48.486;7.964;2023-04-24T01:30:27;12.40;74.50
4840;DHT22;2434;48.486;7.964;2023-04-24T01:32:59;12.40;75.50
4840;DHT22;2434;48.486;7.964;2023-04-24T01:35:27;12.40;75.20
4840;DHT22;2434;48.486;7.964;2023-04-24T01:37:55;12.40;75.30
4840;DHT22;2434;48.486;7.964;2023-04-24T01:40:25;12.40;75.40
4840;DHT22;2434;48.486;7.964;2023-04-24T01:42:57;12.40;75.40
4840;DHT22;2434;48.486;7.964;2023-04-24T01:45:26;12.30;76.10
4840;DHT22;2434;48.486;7.964;2023-04-24T01:47:54;12.30;76.70
4840;DHT22;2434;48.486;7.964;2023-04-24T01:50:23;12.30;77.50
4840;DHT22;2434;48.486;7.964;2023-04-24T01:52:52;12.30;77.30
4840;DHT22;2434;48.486;7.964;2023-04-24T01:55:20;12.30;77.20
4840;DHT22;2434;48.486;7.964;2023-04-24T01:57:52;12.30;76.90
4840;DHT22;2434;48.486;7.964;2023-04-24T02:00:23;12.30;76.70
4840;DHT22;2434;48.486;7.964;2023-04-24T02:02:52;12.30;76.50
4840;DHT22;2434;48.486;7.964;2023-04-24T02:05:21;12.20;76.40
4840;DHT22;2434;48.486;7.964;2023-04-24T02:07:49;12.10;77.10
4840;DHT22;2434;48.486;7.964;2023-04-24T02:10:18;12.20;77.80
4840;DHT22;2434;48.486;7.964;2023-04-24T02:12:46;12.20;77.00
4840;DHT22;2434;48.486;7.964;2023-04-24T02:15:16;12.20;77.10
4840;DHT22;2434;48.486;7.964;2023-04-24T02:17:44;12.10;77.50
4840;DHT22;2434;48.486;7.964;2023-04-24T02:20:13;12.10;77.10
4840;DHT22;2434;48.486;7.964;2023-04-24T02:22:41;12.10;76.60
4840;DHT22;2434;48.486;7.964;2023-04-24T02:25:09;12.10;76.90
4840;DHT22;2434;48.486;7.964;2023-04-24T02:27:37;12.10;76.70
4840;DHT22;2434;48.486;7.964;2023-04-24T02:30:07;12.10;76.40
4840;DHT22;2434;48.486;7.964;2023-04-24T02:32:38;12.00;76.70
4840;DHT22;2434;48.486;7.964;2023-04-24T02:35:10;12.00;76.90
4840;DHT22;2434;48.486;7.964;2023-04-24T02:37:38;12.00;76.70
4840;DHT22;2434;48.486;7.964;2023-04-24T02:40:08;12.00;76.50
4840;DHT22;2434;48.486;7.964;2023-04-24T02:42:36;12.00;76.90
4840;DHT22;2434;48.486;7.964;2023-04-24T02:45:05;12.00;76.60
4840;DHT22;2434;48.486;7.964;2023-04-24T02:47:34;12.00;76.80
4840;DHT22;2434;48.486;7.964;2023-04-24T02:50:05;12.00;77.00
4840;DHT22;2434;48.486;7.964;2023-04-24T02:52:34;12.00;76.60
4840;DHT22;2434;48.486;7.964;2023-04-24T02:55:02;11.90;76.50
4840;DHT22;2434;48.486;7.964;2023-04-24T02:57:30;11.90;77.00
4840;DHT22;2434;48.486;7.964;2023-04-24T02:59:59;11.80;77.40
4840;DHT22;2434;48.486;7.964;2023-04-24T03:02:27;11.80;78.00
4840;DHT22;2434;48.486;7.964;2023-04-24T03:04:56;11.80;78.00
4840;DHT22;2434;48.486;7.964;2023-04-24T03:07:25;11.80;78.10
4840;DHT22;2434;48.486;7.964;2023-04-24T03:09:54;11.80;78.30
4840;DHT22;2434;48.486;7.964;2023-04-24T03:12:24;11.80;77.90
4840;DHT22;2434;48.486;7.964;2023-04-24T03:14:52;11.70;79.40
4840;DHT22;2434;48.486;7.964;2023-04-24T03:17:21;11.70;80.20
4840;DHT22;2434;48.486;7.964;2023-04-24T03:19:49;11.70;81.40
4840;DHT22;2434;48.486;7.964;2023-04-24T03:22:17;11.60;84.00
4840;DHT22;2434;48.486;7.964;2023-04-24T03:24:47;11.60;85.60
4840;DHT22;2434;48.486;7.964;2023-04-24T03:27:17;11.70;84.80
4840;DHT22;2434;48.486;7.964;2023-04-24T03:29:52;11.70;85.10
4840;DHT22;2434;48.486;7.964;2023-04-24T03:32:28;11.70;85.20
4840;DHT22;2434;48.486;7.964;2023-04-24T03:34:59;11.70;85.20
4840;DHT22;2434;48.486;7.964;2023-04-24T03:37:28;11.70;85.20
4840;DHT22;2434;48.486;7.964;2023-04-24T03:40:29;11.70;84.90
4840;DHT22;2434;48.486;7.964;2023-04-24T03:43:01;11.80;84.90
4840;DHT22;2434;48.486;7.964;2023-04-24T03:45:29;11.80;84.50
4840;DHT22;2434;48.486;7.964;2023-04-24T03:47:57;11.80;84.00
4840;DHT22;2434;48.486;7.964;2023-04-24T03:50:26;11.80;83.80
4840;DHT22;2434;48.486;7.964;2023-04-24T03:52:56;11.80;83.80
4840;DHT22;2434;48.486;7.964;2023-04-24T03:55:35;11.80;83.70
4840;DHT22;2434;48.486;7.964;2023-04-24T03:58:04;11.70;83.30
4840;DHT22;2434;48.486;7.964;2023-04-24T04:00:32;11.70;84.00
4840;DHT22;2434;48.486;7.964;2023-04-24T04:03:27;11.70;83.80
4840;DHT22;2434;48.486;7.964;2023-04-24T04:05:56;11.70;83.50
4840;DHT22;2434;48.486;7.964;2023-04-24T04:08:25;11.70;83.30
4840;DHT22;2434;48.486;7.964;2023-04-24T04:10:55;11.80;82.70
4840;DHT22;2434;48.486;7.964;2023-04-24T04:13:23;11.80;82.10
4840;DHT22;2434;48.486;7.964;2023-04-24T04:15:51;11.80;82.80
4840;DHT22;2434;48.486;7.964;2023-04-24T04:18:20;11.80;82.00
4840;DHT22;2434;48.486;7.964;2023-04-24T04:20:49;11.80;81.90
4840;DHT22;2434;48.486;7.964;2023-04-24T04:23:17;11.80;81.70
4840;DHT22;2434;48.486;7.964;2023-04-24T04:25:57;11.80;81.10
4840;DHT22;2434;48.486;7.964;2023-04-24T04:28:37;11.80;80.80
4840;DHT22;2434;48.486;7.964;2023-04-24T04:31:06;11.80;80.50
4840;DHT22;2434;48.486;7.964;2023-04-24T04:33:36;11.70;80.60
4840;DHT22;2434;48.486;7.964;2023-04-24T04:36:07;11.70;80.80
4840;DHT22;2434;48.486;7.964;2023-04-24T04:38:40;11.60;80.80
4840;DHT22;2434;48.486;7.964;2023-04-24T04:41:41;11.60;80.90
4840;DHT22;2434;48.486;7.964;2023-04-24T04:44:10;11.50;81.50
4840;DHT22;2434;48.486;7.964;2023-04-24T04:46:40;11.50;81.20
4840;DHT22;2434;48.486;7.964;2023-04-24T04:49:30;11.50;80.70
4840;DHT22;2434;48.486;7.964;2023-04-24T04:51:59;11.50;81.20
4840;DHT22;2434;48.486;7.964;2023-04-24T04:54:28;11.50;80.60
4840;DHT22;2434;48.486;7.964;2023-04-24T04:56:58;11.50;80.40
4840;DHT22;2434;48.486;7.964;2023-04-24T04:59:30;11.50;80.00
4840;DHT22;2434;48.486;7.964;2023-04-24T05:02:04;11.50;80.40
4840;DHT22;2434;48.486;7.964;2023-04-24T05:04:33;11.50;80.10
4840;DHT22;2434;48.486;7.964;2023-04-24T05:07:02;11.50;79.60
4840;DHT22;2434;48.486;7.964;2023-04-24T05:09:33;11.50;80.50
4840;DHT22;2434;48.486;7.964;2023-04-24T05:12:06;11.60;79.20
4840;DHT22;2434;48.486;7.964;2023-04-24T05:14:41;11.50;78.20
4840;DHT22;2434;48.486;7.964;2023-04-24T05:17:11;11.50;77.90
4840;DHT22;2434;48.486;7.964;2023-04-24T05:19:39;11.40;77.30
4840;DHT22;2434;48.486;7.964;2023-04-24T05:22:08;11.40;77.80
4840;DHT22;2434;48.486;7.964;2023-04-24T05:24:47;11.30;77.80
4840;DHT22;2434;48.486;7.964;2023-04-24T05:27:38;11.30;77.80
4840;DHT22;2434;48.486;7.964;2023-04-24T05:30:14;11.30;77.60
4840;DHT22;2434;48.486;7.964;2023-04-24T05:32:42;11.30;77.20
4840;DHT22;2434;48.486;7.964;2023-04-24T05:35:10;11.30;76.70
4840;DHT22;2434;48.486;7.964;2023-04-24T05:37:38;11.30;75.60
4840;DHT22;2434;48.486;7.964;2023-04-24T05:40:09;11.30;75.00
4840;DHT22;2434;48.486;7.964;2023-04-24T05:42:39;11.20;75.20
4840;DHT22;2434;48.486;7.964;2023-04-24T05:45:08;11.00;75.90
4840;DHT22;2434;48.486;7.964;2023-04-24T05:47:38;10.90;76.50
4840;DHT22;2434;48.486;7.964;2023-04-24T05:50:07;10.90;77.40
4840;DHT22;2434;48.486;7.964;2023-04-24T05:52:35;10.80;76.30
4840;DHT22;2434;48.486;7.964;2023-04-24T05:55:12;10.80;77.50
4840;DHT22;2434;48.486;7.964;2023-04-24T05:57:43;10.80;78.20
4840;DHT22;2434;48.486;7.964;2023-04-24T06:00:12;11.00;78.00
4840;DHT22;2434;48.486;7.964;2023-04-24T06:02:48;10.80;76.50
4840;DHT22;2434;48.486;7.964;2023-04-24T06:05:17;11.00;76.50
4840;DHT22;2434;48.486;7.964;2023-04-24T06:07:46;11.10;76.30
4840;DHT22;2434;48.486;7.964;2023-04-24T06:10:15;11.20;75.80
4840;DHT22;2434;48.486;7.964;2023-04-24T06:12:45;11.20;73.90
4840;DHT22;2434;48.486;7.964;2023-04-24T06:15:16;11.20;73.70
4840;DHT22;2434;48.486;7.964;2023-04-24T06:17:55;11.30;72.80
4840;DHT22;2434;48.486;7.964;2023-04-24T06:20:25;11.20;72.50
4840;DHT22;2434;48.486;7.964;2023-04-24T06:22:54;11.20;70.50
4840;DHT22;2434;48.486;7.964;2023-04-24T06:25:25;11.20;71.40
4840;DHT22;2434;48.486;7.964;2023-04-24T06:27:55;11.20;71.50
4840;DHT22;2434;48.486;7.964;2023-04-24T06:30:23;11.30;69.80
4840;DHT22;2434;48.486;7.964;2023-04-24T06:32:52;11.20;67.10
4840;DHT22;2434;48.486;7.964;2023-04-24T06:35:21;11.10;68.20
4840;DHT22;2434;48.486;7.964;2023-04-24T06:37:50;11.10;68.30
4840;DHT22;2434;48.486;7.964;2023-04-24T06:40:19;11.00;67.00
4840;DHT22;2434;48.486;7.964;2023-04-24T06:42:48;11.00;65.50
4840;DHT22;2434;48.486;7.964;2023-04-24T06:45:18;10.80;64.40
4840;DHT22;2434;48.486;7.964;2023-04-24T06:47:46;10.80;64.90
4840;DHT22;2434;48.486;7.964;2023-04-24T06:50:15;10.90;64.30
4840;DHT22;2434;48.486;7.964;2023-04-24T06:52:43;11.10;65.30
4840;DHT22;2434;48.486;7.964;2023-04-24T06:55:11;11.00;63.90
4840;DHT22;2434;48.486;7.964;2023-04-24T06:57:40;11.10;65.20
4840;DHT22;2434;48.486;7.964;2023-04-24T07:00:09;11.10;63.60
4840;DHT22;2434;48.486;7.964;2023-04-24T07:02:39;11.20;62.10
4840;DHT22;2434;48.486;7.964;2023-04-24T07:05:08;11.20;61.60
4840;DHT22;2434;48.486;7.964;2023-04-24T07:07:36;11.20;60.00
4840;DHT22;2434;48.486;7.964;2023-04-24T07:10:07;11.30;62.30
4840;DHT22;2434;48.486;7.964;2023-04-24T07:12:36;11.30;62.40
4840;DHT22;2434;48.486;7.964;2023-04-24T07:15:05;11.40;61.50
4840;DHT22;2434;48.486;7.964;2023-04-24T07:17:34;11.50;58.20
4840;DHT22;2434;48.486;7.964;2023-04-24T07:20:08;11.60;59.40
4840;DHT22;2434;48.486;7.964;2023-04-24T07:22:38;11.60;54.70
4840;DHT22;2434;48.486;7.964;2023-04-24T07:25:07;11.50;55.20
4840;DHT22;2434;48.486;7.964;2023-04-24T07:27:35;11.60;54.70
4840;DHT22;2434;48.486;7.964;2023-04-24T07:30:05;11.40;52.10
4840;DHT22;2434;48.486;7.964;2023-04-24T07:32:33;11.40;51.90
4840;DHT22;2434;48.486;7.964;2023-04-24T07:35:02;11.30;52.30
4840;DHT22;2434;48.486;7.964;2023-04-24T07:37:32;11.30;52.90
4840;DHT22;2434;48.486;7.964;2023-04-24T07:40:00;11.30;53.50
4840;DHT22;2434;48.486;7.964;2023-04-24T07:42:29;11.30;53.20
4840;DHT22;2434;48.486;7.964;2023-04-24T07:44:58;11.30;51.90
4840;DHT22;2434;48.486;7.964;2023-04-24T07:47:26;11.40;52.20
4840;DHT22;2434;48.486;7.964;2023-04-24T07:49:54;11.40;50.40
4840;DHT22;2434;48.486;7.964;2023-04-24T07:52:23;11.40;48.50
4840;DHT22;2434;48.486;7.964;2023-04-24T07:54:54;11.30;45.70
4840;DHT22;2434;48.486;7.964;2023-04-24T07:57:25;11.30;45.30
4840;DHT22;2434;48.486;7.964;2023-04-24T07:59:53;11.40;43.30
4840;DHT22;2434;48.486;7.964;2023-04-24T08:02:21;11.40;43.10
4840;DHT22;2434;48.486;7.964;2023-04-24T08:04:53;11.40;42.50
4840;DHT22;2434;48.486;7.964;2023-04-24T08:07:23;11.30;43.40
4840;DHT22;2434;48.486;7.964;2023-04-24T08:09:53;11.30;42.20
4840;DHT22;2434;48.486;7.964;2023-04-24T08:12:21;11.30;43.90
4840;DHT22;2434;48.486;7.964;2023-04-24T08:14:49;11.40;44.20
4840;DHT22;2434;48.486;7.964;2023-04-24T08:17:18;11.50;43.90
4840;DHT22;2434;48.486;7.964;2023-04-24T08:19:46;11.50;43.60
4840;DHT22;2434;48.486;7.964;2023-04-24T08:22:15;11.50;41.90
4840;DHT22;2434;48.486;7.964;2023-04-24T08:24:43;11.40;40.50
4840;DHT22;2434;48.486;7.964;2023-04-24T08:27:13;11.40;41.80
4840;DHT22;2434;48.486;7.964;2023-04-24T08:29:41;11.40;42.80
4840;DHT22;2434;48.486;7.964;2023-04-24T08:32:09;11.30;42.50
4840;DHT22;2434;48.486;7.964;2023-04-24T08:34:37;11.40;43.00
4840;DHT22;2434;48.486;7.964;2023-04-24T08:37:06;11.40;42.10
4840;DHT22;2434;48.486;7.964;2023-04-24T08:39:34;11.40;42.00
4840;DHT22;2434;48.486;7.964;2023-04-24T08:42:02;11.40;42.50
4840;DHT22;2434;48.486;7.964;2023-04-24T08:44:36;11.30;41.80
4840;DHT22;2434;48.486;7.964;2023-04-24T08:47:05;11.40;44.00
4840;DHT22;2434;48.486;7.964;2023-04-24T08:49:36;11.40;43.10
4840;DHT22;2434;48.486;7.964;2023-04-24T08:52:05;11.30;42.10
4840;DHT22;2434;48.486;7.964;2023-04-24T08:54:35;11.40;44.80
4840;DHT22;2434;48.486;7.964;2023-04-24T08:57:07;11.30;42.30
4840;DHT22;2434;48.486;7.964;2023-04-24T08:59:39;11.20;41.40
4840;DHT22;2434;48.486;7.964;2023-04-24T09:02:10;11.20;41.80
4840;DHT22;2434;48.486;7.964;2023-04-24T09:04:40;11.30;42.80
4840;DHT22;2434;48.486;7.964;2023-04-24T09:07:09;11.30;42.80
4840;DHT22;2434;48.486;7.964;2023-04-24T09:09:38;11.30;44.80
4840;DHT22;2434;48.486;7.964;2023-04-24T09:12:07;11.40;45.40
4840;DHT22;2434;48.486;7.964;2023-04-24T09:14:37;11.40;43.10
4840;DHT22;2434;48.486;7.964;2023-04-24T09:17:10;11.10;44.70
4840;DHT22;2434;48.486;7.964;2023-04-24T09:19:39;11.00;44.60
4840;DHT22;2434;48.486;7.964;2023-04-24T09:22:09;11.00;45.80
4840;DHT22;2434;48.486;7.964;2023-04-24T09:24:38;11.00;45.90
4840;DHT22;2434;48.486;7.964;2023-04-24T09:27:07;11.00;45.60
4840;DHT22;2434;48.486;7.964;2023-04-24T09:29:37;11.00;45.30
4840;DHT22;2434;48.486;7.964;2023-04-24T09:32:20;11.00;46.50
4840;DHT22;2434;48.486;7.964;2023-04-24T09:34:49;11.00;46.20
4840;DHT22;2434;48.486;7.964;2023-04-24T09:37:27;11.20;45.80
4840;DHT22;2434;48.486;7.964;2023-04-24T09:40:12;11.20;45.80
4840;DHT22;2434;48.486;7.964;2023-04-24T09:42:43;11.20;46.20
4840;DHT22;2434;48.486;7.964;2023-04-24T09:45:12;11.20;44.60
4840;DHT22;2434;48.486;7.964;2023-04-24T09:47:43;11.10;45.40
4840;DHT22;2434;48.486;7.964;2023-04-24T09:50:15;11.20;46.40
4840;DHT22;2434;48.486;7.964;2023-04-24T09:52:56;11.30;47.60
4840;DHT22;2434;48.486;7.964;2023-04-24T09:55:25;11.30;47.30
4840;DHT22;2434;48.486;7.964;2023-04-24T09:57:55;11.20;46.20
4840;DHT22;2434;48.486;7.964;2023-04-24T10:00:25;11.10;47.20
4840;DHT22;2434;48.486;7.964;2023-04-24T10:02:59;11.20;49.80
4840;DHT22;2434;48.486;7.964;2023-04-24T10:05:30;11.10;52.20
4840;DHT22;2434;48.486;7.964;2023-04-24T10:08:00;11.20;52.30
4840;DHT22;2434;48.486;7.964;2023-04-24T10:10:30;11.10;53.20
4840;DHT22;2434;48.486;7.964;2023-04-24T10:12:59;11.10;53.80
4840;DHT22;2434;48.486;7.964;2023-04-24T10:15:28;11.20;55.30
4840;DHT22;2434;48.486;7.964;2023-04-24T10:17:59;11.30;51.80
4840;DHT22;2434;48.486;7.964;2023-04-24T10:20:29;11.40;51.20
4840;DHT22;2434;48.486;7.964;2023-04-24T10:22:58;11.40;50.90
4840;DHT22;2434;48.486;7.964;2023-04-24T10:25:28;11.50;50.30
4840;DHT22;2434;48.486;7.964;2023-04-24T10:27:58;11.50;50.50
4840;DHT22;2434;48.486;7.964;2023-04-24T10:30:28;11.50;49.70
4840;DHT22;2434;48.486;7.964;2023-04-24T10:32:56;11.50;49.90
4840;DHT22;2434;48.486;7.964;2023-04-24T10:35:26;11.50;49.90
4840;DHT22;2434;48.486;7.964;2023-04-24T10:37:57;11.40;50.80
4840;DHT22;2434;48.486;7.964;2023-04-24T10:40:26;11.50;50.70
4840;DHT22;2434;48.486;7.964;2023-04-24T10:42:56;11.50;49.10
4840;DHT22;2434;48.486;7.964;2023-04-24T10:45:25;11.50;48.20
4840;DHT22;2434;48.486;7.964;2023-04-24T10:47:57;11.50;47.00
4840;DHT22;2434;48.486;7.964;2023-04-24T10:50:30;11.50;47.80
4840;DHT22;2434;48.486;7.964;2023-04-24T10:53:13;11.40;47.10
4840;DHT22;2434;48.486;7.964;2023-04-24T10:55:44;11.40;46.50
4840;DHT22;2434;48.486;7.964;2023-04-24T10:58:12;11.40;47.60
4840;DHT22;2434;48.486;7.964;2023-04-24T11:00:42;11.30;48.50
4840;DHT22;2434;48.486;7.964;2023-04-24T11:03:25;11.20;49.50
4840;DHT22;2434;48.486;7.964;2023-04-24T11:06:00;11.10;51.60
4840;DHT22;2434;48.486;7.964;2023-04-24T11:08:31;11.10;50.40
4840;DHT22;2434;48.486;7.964;2023-04-24T11:11:08;11.00;52.10
4840;DHT22;2434;48.486;7.964;2023-04-24T11:14:03;11.10;52.60
4840;DHT22;2434;48.486;7.964;2023-04-24T11:16:37;11.00;54.70
4840;DHT22;2434;48.486;7.964;2023-04-24T11:19:08;10.90;59.20
4840;DHT22;2434;48.486;7.964;2023-04-24T11:21:42;10.80;59.10
4840;DHT22;2434;48.486;7.964;2023-04-24T11:24:27;10.90;58.90
4840;DHT22;2434;48.486;7.964;2023-04-24T11:26:57;11.00;58.30
4840;DHT22;2434;48.486;7.964;2023-04-24T11:29:46;11.00;56.20
4840;DHT22;2434;48.486;7.964;2023-04-24T11:32:16;11.20;56.60
4840;DHT22;2434;48.486;7.964;2023-04-24T11:34:47;11.30;56.30
4840;DHT22;2434;48.486;7.964;2023-04-24T11:37:17;11.30;55.60
4840;DHT22;2434;48.486;7.964;2023-04-24T11:39:45;11.40;57.00
4840;DHT22;2434;48.486;7.964;2023-04-24T11:42:15;11.40;56.30
4840;DHT22;2434;48.486;7.964;2023-04-24T11:44:43;11.40;53.80
4840;DHT22;2434;48.486;7.964;2023-04-24T11:47:14;11.50;56.10
4840;DHT22;2434;48.486;7.964;2023-04-24T11:49:42;11.50;54.10
4840;DHT22;2434;48.486;7.964;2023-04-24T11:52:11;11.60;51.00
4840;DHT22;2434;48.486;7.964;2023-04-24T11:54:48;11.50;50.80
4840;DHT22;2434;48.486;7.964;2023-04-24T11:57:19;11.40;50.00
4840;DHT22;2434;48.486;7.964;2023-04-24T11:59:49;11.50;50.80
4840;DHT22;2434;48.486;7.964;2023-04-24T12:02:22;11.50;50.10
4840;DHT22;2434;48.486;7.964;2023-04-24T12:04:51;11.50;49.50
4840;DHT22;2434;48.486;7.964;2023-04-24T12:07:20;11.50;48.70
4840;DHT22;2434;48.486;7.964;2023-04-24T12:09:55;11.50;48.20
4840;DHT22;2434;48.486;7.964;2023-04-24T12:12:26;11.60;48.00
4840;DHT22;2434;48.486;7.964;2023-04-24T12:14:56;11.50;48.80
4840;DHT22;2434;48.486;7.964;2023-04-24T12:17:26;11.50;50.80
4840;DHT22;2434;48.486;7.964;2023-04-24T12:19:59;11.60;46.70
4840;DHT22;2434;48.486;7.964;2023-04-24T12:22:43;11.60;47.60
4840;DHT22;2434;48.486;7.964;2023-04-24T12:25:14;11.70;48.00
4840;DHT22;2434;48.486;7.964;2023-04-24T12:27:43;11.70;47.50
4840;DHT22;2434;48.486;7.964;2023-04-24T12:30:13;11.70;47.20
4840;DHT22;2434;48.486;7.964;2023-04-24T12:32:42;11.70;47.90
4840;DHT22;2434;48.486;7.964;2023-04-24T12:35:11;11.80;47.60
4840;DHT22;2434;48.486;7.964;2023-04-24T12:37:42;11.80;47.60
4840;DHT22;2434;48.486;7.964;2023-04-24T12:40:15;11.80;46.60
4840;DHT22;2434;48.486;7.964;2023-04-24T12:42:45;11.90;47.00
4840;DHT22;2434;48.486;7.964;2023-04-24T12:45:14;11.90;46.60
4840;DHT22;2434;48.486;7.964;2023-04-24T12:47:43;11.80;44.90
4840;DHT22;2434;48.486;7.964;2023-04-24T12:50:13;11.70;45.70
4840;DHT22;2434;48.486;7.964;2023-04-24T12:52:41;11.80;46.50
4840;DHT22;2434;48.486;7.964;2023-04-24T12:55:10;11.80;45.80
4840;DHT22;2434;48.486;7.964;2023-04-24T12:57:40;11.80;44.80
4840;DHT22;2434;48.486;7.964;2023-04-24T13:00:09;11.90;45.30
4840;DHT22;2434;48.486;7.964;2023-04-24T13:02:37;11.90;45.10
4840;DHT22;2434;48.486;7.964;2023-04-24T13:05:06;11.90;45.00
4840;DHT22;2434;48.486;7.964;2023-04-24T13:07:35;11.90;44.50
4840;DHT22;2434;48.486;7.964;2023-04-24T13:10:04;11.90;44.50
4840;DHT22;2434;48.486;7.964;2023-04-24T13:12:32;11.90;45.20
4840;DHT22;2434;48.486;7.964;2023-04-24T13:15:02;11.90;44.00
4840;DHT22;2434;48.486;7.964;2023-04-24T13:17:31;11.80;44.60
4840;DHT22;2434;48.486;7.964;2023-04-24T13:19:59;11.90;45.30
4840;DHT22;2434;48.486;7.964;2023-04-24T13:22:28;11.90;45.10
4840;DHT22;2434;48.486;7.964;2023-04-24T13:24:56;11.80;45.50
4840;DHT22;2434;48.486;7.964;2023-04-24T13:27:24;11.90;44.80
4840;DHT22;2434;48.486;7.964;2023-04-24T13:29:53;11.90;44.90
4840;DHT22;2434;48.486;7.964;2023-04-24T13:32:22;11.90;45.00
4840;DHT22;2434;48.486;7.964;2023-04-24T13:34:50;12.00;44.90
4840;DHT22;2434;48.486;7.964;2023-04-24T13:37:19;12.00;45.50
4840;DHT22;2434;48.486;7.964;2023-04-24T13:39:47;12.00;45.30
4840;DHT22;2434;48.486;7.964;2023-04-24T13:42:17;11.90;45.90
4840;DHT22;2434;48.486;7.964;2023-04-24T13:44:46;12.00;45.60
4840;DHT22;2434;48.486;7.964;2023-04-24T13:47:15;12.00;44.80
4840;DHT22;2434;48.486;7.964;2023-04-24T13:49:44;12.10;45.20
4840;DHT22;2434;48.486;7.964;2023-04-24T13:52:12;12.10;47.30
4840;DHT22;2434;48.486;7.964;2023-04-24T13:54:41;12.00;44.60
4840;DHT22;2434;48.486;7.964;2023-04-24T13:57:09;12.10;45.40
4840;DHT22;2434;48.486;7.964;2023-04-24T13:59:38;12.10;46.00
4840;DHT22;2434;48.486;7.964;2023-04-24T14:02:07;12.00;44.80
4840;DHT22;2434;48.486;7.964;2023-04-24T14:04:35;12.10;45.60
4840;DHT22;2434;48.486;7.964;2023-04-24T14:07:05;12.10;44.80
4840;DHT22;2434;48.486;7.964;2023-04-24T14:09:34;12.10;41.80
4840;DHT22;2434;48.486;7.964;2023-04-24T14:12:03;12.10;42.70
4840;DHT22;2434;48.486;7.964;2023-04-24T14:14:31;12.10;43.40
4840;DHT22;2434;48.486;7.964;2023-04-24T14:16:59;12.10;41.10
4840;DHT22;2434;48.486;7.964;2023-04-24T14:19:27;12.10;43.30
4840;DHT22;2434;48.486;7.964;2023-04-24T14:21:55;12.20;42.40
4840;DHT22;2434;48.486;7.964;2023-04-24T14:24:26;12.30;42.30
4840;DHT22;2434;48.486;7.964;2023-04-24T14:26:54;12.40;42.50
4840;DHT22;2434;48.486;7.964;2023-04-24T14:29:23;12.40;41.60
4840;DHT22;2434;48.486;7.964;2023-04-24T14:31:52;12.40;41.70
4840;DHT22;2434;48.486;7.964;2023-04-24T14:34:20;12.50;41.10
4840;DHT22;2434;48.486;7.964;2023-04-24T14:36:49;12.70;41.70
4840;DHT22;2434;48.486;7.964;2023-04-24T14:39:17;12.90;42.60
4840;DHT22;2434;48.486;7.964;2023-04-24T14:41:46;13.10;41.20
4840;DHT22;2434;48.486;7.964;2023-04-24T14:44:15;13.10;37.90
4840;DHT22;2434;48.486;7.964;2023-04-24T14:46:43;13.20;39.30
4840;DHT22;2434;48.486;7.964;2023-04-24T14:49:11;13.20;39.00
4840;DHT22;2434;48.486;7.964;2023-04-24T14:51:39;13.20;40.00
4840;DHT22;2434;48.486;7.964;2023-04-24T14:54:08;13.30;39.30
4840;DHT22;2434;48.486;7.964;2023-04-24T14:56:36;13.40;38.20
4840;DHT22;2434;48.486;7.964;2023-04-24T14:59:08;13.40;38.70
4840;DHT22;2434;48.486;7.964;2023-04-24T15:01:37;13.30;39.30
4840;DHT22;2434;48.486;7.964;2023-04-24T15:04:05;13.50;38.30
4840;DHT22;2434;48.486;7.964;2023-04-24T15:06:33;13.50;39.70
4840;DHT22;2434;48.486;7.964;2023-04-24T15:09:02;13.40;36.70
4840;DHT22;2434;48.486;7.964;2023-04-24T15:11:30;13.40;36.10
4840;DHT22;2434;48.486;7.964;2023-04-24T15:13:58;13.40;36.40
4840;DHT22;2434;48.486;7.964;2023-04-24T15:16:28;13.40;37.50
4840;DHT22;2434;48.486;7.964;2023-04-24T15:18:56;13.40;36.60
4840;DHT22;2434;48.486;7.964;2023-04-24T15:21:24;13.40;38.30
4840;DHT22;2434;48.486;7.964;2023-04-24T15:23:52;13.40;39.00
4840;DHT22;2434;48.486;7.964;2023-04-24T15:26:21;13.30;40.80
4840;DHT22;2434;48.486;7.964;2023-04-24T15:28:50;13.30;36.90
4840;DHT22;2434;48.486;7.964;2023-04-24T15:31:18;13.40;37.30
4840;DHT22;2434;48.486;7.964;2023-04-24T15:33:48;13.40;36.50
4840;DHT22;2434;48.486;7.964;2023-04-24T15:36:17;13.40;37.80
4840;DHT22;2434;48.486;7.964;2023-04-24T15:38:45;13.30;39.20
4840;DHT22;2434;48.486;7.964;2023-04-24T15:41:14;13.30;39.30
4840;DHT22;2434;48.486;7.964;2023-04-24T15:43:42;13.20;39.10
4840;DHT22;2434;48.486;7.964;2023-04-24T15:46:11;13.20;40.30
4840;DHT22;2434;48.486;7.964;2023-04-24T15:48:39;13.30;40.30
4840;DHT22;2434;48.486;7.964;2023-04-24T15:51:10;13.30;40.40
4840;DHT22;2434;48.486;7.964;2023-04-24T15:53:39;13.20;39.60
4840;DHT22;2434;48.486;7.964;2023-04-24T15:56:07;13.20;38.80
4840;DHT22;2434;48.486;7.964;2023-04-24T15:58:35;13.20;38.50
4840;DHT22;2434;48.486;7.964;2023-04-24T16:01:03;13.20;39.00
4840;DHT22;2434;48.486;7.964;2023-04-24T16:03:31;13.10;39.50
4840;DHT22;2434;48.486;7.964;2023-04-24T16:06:00;13.20;40.90
4840;DHT22;2434;48.486;7.964;2023-04-24T16:08:30;13.20;39.80
4840;DHT22;2434;48.486;7.964;2023-04-24T16:10:58;13.30;40.40
4840;DHT22;2434;48.486;7.964;2023-04-24T16:13:26;13.30;39.50
4840;DHT22;2434;48.486;7.964;2023-04-24T16:15:55;13.30;39.00
4840;DHT22;2434;48.486;7.964;2023-04-24T16:18:23;13.30;38.20
4840;DHT22;2434;48.486;7.964;2023-04-24T16:20:52;13.20;36.70